תחנות METAR סמוכות

 

LLBG - Ben-Gurion(Civ/M, Israel
Distance from station: 'מ 83km
עודכן: 20/11/2019 21:50
בהיר
בהיר
 רוח מ משתנה
רוח: משתנה 2 km/h
טמפרטורה: 14°C
נקודת הטל: -5°C
לחות: 27%
ברומטר: 1018 hPa
סיכום: בהיר
ראות: greater than 10 km
2019/11/20 19:50 LLBG 201950Z VRB01KT CAVOK 14/M05 Q1018 NOSIG
LLSD - Sde Dov Airport, Israel
Distance from station: 'מ 75km
עודכן: 30/06/2019 23:50
לא מעודכן
מעונן חלקית
מעונן חלקית
 רוח מ משתנה
רוח: משתנה 6 km/h
טמפרטורה: 27°C
עומס חום: 30°C
נקודת הטל: 23°C
לחות: 79%
ברומטר: 1007 hPa
עננים: מעונן חלקית
ראות: 10 km
Cloud details: מעונן חלקית 518 m
2019/06/30 20:50 LLSD 302050Z VRB03KT 9999 SCT017 27/23 Q1007
 
LLHA - Haifa (isr-Afb), Israel
Distance from station: 'צמ 129km
עודכן: 20/11/2019 19:50
לא מעודכן
בהיר
בהיר
 רוח מ 'דדמ
רוח: 'דדמ 7 km/h
טמפרטורה: 16°C
נקודת הטל: -3°C
לחות: 27%
ברומטר: 1019 hPa
סיכום: בהיר
ראות: greater than 10 km
2019/11/20 17:50 LLHA 201750Z 15004KT CAVOK 16/M03 Q1019
LLIB - Ben Ya Akov, Israel
Distance from station: 'צמ 183km
עודכן: 20/11/2019 18:50
לא מעודכן
בהיר
בהיר
 רוח מ 'דמ
רוח: 'דמ 9 km/h
טמפרטורה: 17°C
נקודת הטל: -4°C
לחות: 24%
ברומטר: 1020 hPa
סיכום: בהיר
ראות: greater than 10 km
2019/11/20 16:50 LLIB 201650Z 14005KT CAVOK 17/M04 Q1020
 
LLOV - Ovda (isr-Afb/Ci, Israel
Distance from station: 'דדמ 246km
עודכן: 31/03/2019 22:50
לא מעודכן
בהיר
בהיר
 רוח מ 'מדמ
רוח: 'מדמ 13 km/h
טמפרטורה: 12°C
נקודת הטל: 0°C
לחות: 44%
ברומטר: 1012 hPa
סיכום: בהיר
ראות: greater than 10 km
2019/03/31 19:50 LLOV 311950Z 24007KT CAVOK 12/00 Q1012
LLET - Elat/J. Hozman(A, Israel
Distance from station: 'דדמ 287km
עודכן: 18/03/2019 17:50
לא מעודכן
בהיר
בהיר
 רוח מ 'צצמ
רוח: 'צצמ 30 km/h
טמפרטורה: 24°C
נקודת הטל: -1°C
לחות: 19%
ברומטר: 1016 hPa
סיכום: בהיר
ראות: greater than 10 km
2019/03/18 15:50 LLET 181550Z 02016KT CAVOK 24/M01 Q1016
 
LCLK - Larnaca/Larnax A, Cyprus
Distance from station: 'צ 321km
עודכן: 20/11/2019 21:30
בהיר
בהיר
 רוח מ 'צמ
רוח: 'צמ 6 km/h
טמפרטורה: 15°C
נקודת הטל: 10°C
לחות: 72%
ברומטר: 1019 hPa
סיכום: בהיר
ראות: greater than 10 km
2019/11/20 19:30 LCLK 201930Z 31003KT 270V340 CAVOK 15/10 Q1019 NOSIG